Bloomsburg, PA

10:59 PM EDT on September 02, 2015 (GMT -0400)
Bloomsburg University | | Change Station
CLOSE
Current Station
Personal Weather Station
Location: Bloomsburg, PA
Elevation: 689 ft
Nearby Weather Stations

Elev 689 ft 41.01 °N, 76.45 °W | Updated 3 hours ago

Clear
Clear
84.8 °F
Feels Like 87 °F
N
0.0
Wind Variable Wind from NNW
Gusts 0.0 mph

Today
High -- | Low -- °F
--% Chance of Precip.
Yesterday
High -- | Low -- °F
Precip. -- in
6:33 AM 7:37 PM
Waning Gibbous, 75% visible
Pressure 29.94 in
Visibility 4.0 miles
Clouds Few 5500 ft
Scattered Clouds 7500 ft
Heat Index 87 °F
Dew Point 66 °F
Humidity 53%
Rainfall 0.00 in
Snow Depth Not available.
UV 0 out of 12
Pollen 9.60 out of 12
Air Quality Not available.
Flu Activity Not available.
METAR KSEG 030253Z AUTO 00000KT 4SM BR FEW055 SCT075 21/20 A2995 RMK AO2 SLP139 T02110200 53008
Pressure 29.94 in
Visibility 4.0 miles
Clouds Few 5500 ft
Scattered Clouds 7500 ft
Heat Index 87 °F
Dew Point 66 °F
Humidity 53%
Rainfall 0.00 in
Snow Depth Not available.
UV 0 out of 12
Pollen 9.60 out of 12
Air Quality Not available.
Flu Activity Not available.
METAR KSEG 030253Z AUTO 00000KT 4SM BR FEW055 SCT075 21/20 A2995 RMK AO2 SLP139 T02110200 53008

10-Day Weather Forecast

×

Almanac

Astronomy

Sep. 02, 2015 Rise Set
Actual Time
Civil Twilight
Nautical Twilight
Astronomical Twilight
Moon
Length of Visible Light
Length of Day
Tomorrow will be .
, % of the Moon is Illuminated

Today's Extremes

State Highs State Lows

Community

WunderPhotos

Upload Photos

1,851,879 photos uploaded!

WunderBlogs® & News

Nearby

Air Quality

  Air Quality AQ Index Pollutant
Not available.

Snow Depth

Station Depth Elevation

Earthquake Activity

City Distance Mag. Time & Date
Minimum magnitude displayed is 2.5.

Coastal Water Temperatures

Place Temperature

Stations

Nearby Weather Stations

Station Location Temp. Windchill Dew Point Humidity Wind Precip. Elev Updated Type